sensor_id;sensor_type;location;lat;lon;timestamp;pressure;altitude;pressure_sealevel;temperature;humidity
48624;BME280;34422;45.802;16.114;2023-02-18T00:00:27;101063.06;;;7.08;100.00
48624;BME280;34422;45.802;16.114;2023-02-18T00:02:54;101071.81;;;7.10;100.00
48624;BME280;34422;45.802;16.114;2023-02-18T00:05:23;101072.16;;;7.07;100.00
48624;BME280;34422;45.802;16.114;2023-02-18T00:07:50;101066.09;;;7.05;100.00
48624;BME280;34422;45.802;16.114;2023-02-18T00:10:17;101071.13;;;7.00;100.00
48624;BME280;34422;45.802;16.114;2023-02-18T00:12:44;101069.16;;;6.94;100.00
48624;BME280;34422;45.802;16.114;2023-02-18T00:15:11;101077.38;;;7.00;100.00
48624;BME280;34422;45.802;16.114;2023-02-18T00:17:38;101069.63;;;7.05;100.00
48624;BME280;34422;45.802;16.114;2023-02-18T00:20:06;101074.84;;;7.07;100.00
48624;BME280;34422;45.802;16.114;2023-02-18T00:22:33;101068.44;;;7.24;100.00
48624;BME280;34422;45.802;16.114;2023-02-18T00:25:00;101070.00;;;7.58;100.00
48624;BME280;34422;45.802;16.114;2023-02-18T00:27:27;101063.84;;;7.80;100.00
48624;BME280;34422;45.802;16.114;2023-02-18T00:29:54;101061.41;;;8.01;100.00
48624;BME280;34422;45.802;16.114;2023-02-18T00:32:21;101056.50;;;8.05;100.00
48624;BME280;34422;45.802;16.114;2023-02-18T00:34:48;101063.16;;;7.86;100.00
48624;BME280;34422;45.802;16.114;2023-02-18T00:37:14;101061.16;;;7.80;100.00
48624;BME280;34422;45.802;16.114;2023-02-18T00:39:41;101067.22;;;7.82;100.00
48624;BME280;34422;45.802;16.114;2023-02-18T00:42:08;101060.66;;;7.84;100.00
48624;BME280;34422;45.802;16.114;2023-02-18T00:44:36;101052.59;;;7.76;100.00
48624;BME280;34422;45.802;16.114;2023-02-18T00:47:03;101066.25;;;7.75;100.00
48624;BME280;34422;45.802;16.114;2023-02-18T00:49:30;101063.22;;;7.70;100.00
48624;BME280;34422;45.802;16.114;2023-02-18T00:51:57;101066.59;;;7.72;100.00
48624;BME280;34422;45.802;16.114;2023-02-18T00:54:24;101070.31;;;7.71;100.00
48624;BME280;34422;45.802;16.114;2023-02-18T00:56:51;101066.25;;;7.75;100.00
48624;BME280;34422;45.802;16.114;2023-02-18T00:59:18;101075.47;;;7.80;100.00
48624;BME280;34422;45.802;16.114;2023-02-18T01:01:45;101078.00;;;7.82;100.00
48624;BME280;34422;45.802;16.114;2023-02-18T01:04:11;101078.38;;;7.79;100.00
48624;BME280;34422;45.802;16.114;2023-02-18T01:06:38;101075.97;;;7.84;100.00
48624;BME280;34422;45.802;16.114;2023-02-18T01:09:05;101066.03;;;7.84;100.00
48624;BME280;34422;45.802;16.114;2023-02-18T01:11:32;101065.53;;;7.81;100.00
48624;BME280;34422;45.802;16.114;2023-02-18T01:13:59;101065.53;;;7.81;100.00
48624;BME280;34422;45.802;16.114;2023-02-18T01:16:26;101068.72;;;7.84;100.00
48624;BME280;34422;45.802;16.114;2023-02-18T01:18:53;101062.47;;;7.92;100.00
48624;BME280;34422;45.802;16.114;2023-02-18T01:21:19;101059.56;;;7.94;100.00
48624;BME280;34422;45.802;16.114;2023-02-18T01:23:46;101057.69;;;8.02;100.00
48624;BME280;34422;45.802;16.114;2023-02-18T01:26:13;101056.97;;;8.08;100.00
48624;BME280;34422;45.802;16.114;2023-02-18T01:28:40;101049.91;;;8.07;100.00
48624;BME280;34422;45.802;16.114;2023-02-18T01:31:09;101044.22;;;8.02;100.00
48624;BME280;34422;45.802;16.114;2023-02-18T01:33:36;101058.47;;;7.80;100.00
48624;BME280;34422;45.802;16.114;2023-02-18T01:36:04;101057.88;;;7.62;100.00
48624;BME280;34422;45.802;16.114;2023-02-18T01:38:31;101060.59;;;7.62;100.00
48624;BME280;34422;45.802;16.114;2023-02-18T01:40:58;101046.13;;;7.55;100.00
48624;BME280;34422;45.802;16.114;2023-02-18T01:43:25;101049.81;;;7.54;100.00
48624;BME280;34422;45.802;16.114;2023-02-18T01:46:03;101053.16;;;7.64;100.00
48624;BME280;34422;45.802;16.114;2023-02-18T01:48:45;101055.16;;;7.70;100.00
48624;BME280;34422;45.802;16.114;2023-02-18T01:51:25;101051.63;;;7.69;100.00
48624;BME280;34422;45.802;16.114;2023-02-18T01:53:58;101048.63;;;7.64;100.00
48624;BME280;34422;45.802;16.114;2023-02-18T01:56:30;101038.31;;;7.68;100.00
48624;BME280;34422;45.802;16.114;2023-02-18T01:59:01;101037.31;;;7.69;100.00
48624;BME280;34422;45.802;16.114;2023-02-18T02:01:30;101030.97;;;7.54;100.00
48624;BME280;34422;45.802;16.114;2023-02-18T02:03:58;101043.69;;;7.29;100.00
48624;BME280;34422;45.802;16.114;2023-02-18T02:06:25;101046.91;;;7.24;100.00
48624;BME280;34422;45.802;16.114;2023-02-18T02:08:55;101046.94;;;7.08;100.00
48624;BME280;34422;45.802;16.114;2023-02-18T02:14:42;101049.41;;;7.26;100.00
48624;BME280;34422;45.802;16.114;2023-02-18T02:31:22;101006.50;;;7.71;100.00
48624;BME280;34422;45.802;16.114;2023-02-18T02:36:54;100995.19;;;7.76;100.00
48624;BME280;34422;45.802;16.114;2023-02-18T02:39:41;100994.03;;;7.70;100.00
48624;BME280;34422;45.802;16.114;2023-02-18T02:47:36;100981.75;;;7.68;100.00
48624;BME280;34422;45.802;16.114;2023-02-18T02:52:39;100973.41;;;7.55;100.00
48624;BME280;34422;45.802;16.114;2023-02-18T02:55:11;100975.06;;;7.64;100.00
48624;BME280;34422;45.802;16.114;2023-02-18T02:57:45;100981.09;;;7.66;100.00
48624;BME280;34422;45.802;16.114;2023-02-18T03:00:14;100984.66;;;7.58;100.00
48624;BME280;34422;45.802;16.114;2023-02-18T03:03:25;100980.47;;;7.56;100.00
48624;BME280;34422;45.802;16.114;2023-02-18T03:08:40;100978.44;;;7.58;100.00
48624;BME280;34422;45.802;16.114;2023-02-18T03:11:13;100974.41;;;7.54;100.00
48624;BME280;34422;45.802;16.114;2023-02-18T03:21:35;100985.09;;;7.70;100.00
48624;BME280;34422;45.802;16.114;2023-02-18T03:24:43;100981.75;;;7.68;100.00
48624;BME280;34422;45.802;16.114;2023-02-18T03:27:52;100986.09;;;7.77;100.00
48624;BME280;34422;45.802;16.114;2023-02-18T03:30:34;100984.44;;;7.68;100.00
48624;BME280;34422;45.802;16.114;2023-02-18T03:33:04;100995.28;;;7.60;100.00
48624;BME280;34422;45.802;16.114;2023-02-18T03:35:35;100992.63;;;7.52;100.00
48624;BME280;34422;45.802;16.114;2023-02-18T03:38:17;100989.56;;;7.55;100.00
48624;BME280;34422;45.802;16.114;2023-02-18T03:40:45;100990.56;;;7.62;100.00
48624;BME280;34422;45.802;16.114;2023-02-18T03:43:12;100987.81;;;7.70;100.00
48624;BME280;34422;45.802;16.114;2023-02-18T03:45:39;100993.09;;;7.86;100.00
48624;BME280;34422;45.802;16.114;2023-02-18T03:48:06;100979.88;;;7.99;100.00
48624;BME280;34422;45.802;16.114;2023-02-18T03:50:33;100989.91;;;8.13;100.00
48624;BME280;34422;45.802;16.114;2023-02-18T03:52:59;100982.47;;;8.15;100.00
48624;BME280;34422;45.802;16.114;2023-02-18T03:55:26;100994.94;;;8.16;100.00
48624;BME280;34422;45.802;16.114;2023-02-18T03:57:53;100982.13;;;8.18;100.00
48624;BME280;34422;45.802;16.114;2023-02-18T04:00:20;100994.59;;;8.19;100.00
48624;BME280;34422;45.802;16.114;2023-02-18T04:02:47;100985.00;;;8.17;100.00
48624;BME280;34422;45.802;16.114;2023-02-18T04:05:14;100981.50;;;8.08;100.00
48624;BME280;34422;45.802;16.114;2023-02-18T04:07:41;100988.22;;;8.12;100.00
48624;BME280;34422;45.802;16.114;2023-02-18T04:10:08;100997.31;;;8.11;100.00
48624;BME280;34422;45.802;16.114;2023-02-18T04:12:35;100983.91;;;8.03;100.00
48624;BME280;34422;45.802;16.114;2023-02-18T04:15:03;100992.34;;;8.00;100.00
48624;BME280;34422;45.802;16.114;2023-02-18T04:17:32;101002.13;;;8.01;100.00
48624;BME280;34422;45.802;16.114;2023-02-18T04:19:59;100993.72;;;7.96;100.00
48624;BME280;34422;45.802;16.114;2023-02-18T04:22:25;100988.41;;;7.80;100.00
48624;BME280;34422;45.802;16.114;2023-02-18T04:24:52;100988.06;;;7.83;100.00
48624;BME280;34422;45.802;16.114;2023-02-18T04:27:19;100983.41;;;7.77;100.00
48624;BME280;34422;45.802;16.114;2023-02-18T04:29:46;100992.56;;;7.60;100.00
48624;BME280;34422;45.802;16.114;2023-02-18T04:32:12;100992.34;;;7.30;100.00
48624;BME280;34422;45.802;16.114;2023-02-18T04:34:39;100989.38;;;7.17;100.00
48624;BME280;34422;45.802;16.114;2023-02-18T04:37:06;100996.47;;;7.10;100.00
48624;BME280;34422;45.802;16.114;2023-02-18T04:39:33;101002.16;;;7.15;100.00
48624;BME280;34422;45.802;16.114;2023-02-18T04:42:00;100979.28;;;7.19;100.00
48624;BME280;34422;45.802;16.114;2023-02-18T04:44:26;100989.25;;;7.10;100.00
48624;BME280;34422;45.802;16.114;2023-02-18T04:46:53;100991.72;;;7.20;100.00
48624;BME280;34422;45.802;16.114;2023-02-18T04:49:20;100996.06;;;7.37;100.00
48624;BME280;34422;45.802;16.114;2023-02-18T04:51:47;101000.22;;;7.48;100.00
48624;BME280;34422;45.802;16.114;2023-02-18T04:54:14;100998.66;;;7.54;100.00
48624;BME280;34422;45.802;16.114;2023-02-18T04:56:41;100994.94;;;7.63;100.00
48624;BME280;34422;45.802;16.114;2023-02-18T04:59:07;100998.81;;;7.60;100.00
48624;BME280;34422;45.802;16.114;2023-02-18T05:01:34;100994.75;;;7.64;100.00
48624;BME280;34422;45.802;16.114;2023-02-18T05:04:01;100993.53;;;7.67;100.00
48624;BME280;34422;45.802;16.114;2023-02-18T05:06:28;100994.94;;;7.55;100.00
48624;BME280;34422;45.802;16.114;2023-02-18T05:08:55;100994.72;;;7.33;100.00
48624;BME280;34422;45.802;16.114;2023-02-18T05:11:21;100991.56;;;7.13;100.00
48624;BME280;34422;45.802;16.114;2023-02-18T05:13:48;100994.16;;;6.91;100.00
48624;BME280;34422;45.802;16.114;2023-02-18T05:16:15;100984.06;;;6.85;100.00
48624;BME280;34422;45.802;16.114;2023-02-18T05:18:42;100994.84;;;6.76;100.00
48624;BME280;34422;45.802;16.114;2023-02-18T05:21:09;100986.94;;;6.75;100.00
48624;BME280;34422;45.802;16.114;2023-02-18T05:23:37;100988.47;;;6.69;100.00
48624;BME280;34422;45.802;16.114;2023-02-18T05:26:04;100987.63;;;6.69;100.00
48624;BME280;34422;45.802;16.114;2023-02-18T05:28:31;101002.44;;;6.65;100.00
48624;BME280;34422;45.802;16.114;2023-02-18T05:30:58;100992.81;;;6.78;100.00
48624;BME280;34422;45.802;16.114;2023-02-18T05:33:24;100999.03;;;6.87;100.00
48624;BME280;34422;45.802;16.114;2023-02-18T05:35:51;101002.59;;;6.80;100.00
48624;BME280;34422;45.802;16.114;2023-02-18T05:38:18;100995.53;;;6.62;100.00
48624;BME280;34422;45.802;16.114;2023-02-18T05:40:45;100989.97;;;6.64;100.00
48624;BME280;34422;45.802;16.114;2023-02-18T05:43:12;100987.78;;;6.59;100.00
48624;BME280;34422;45.802;16.114;2023-02-18T05:45:39;100990.16;;;6.54;100.00
48624;BME280;34422;45.802;16.114;2023-02-18T05:48:06;100980.59;;;6.52;100.00
48624;BME280;34422;45.802;16.114;2023-02-18T05:50:33;100971.19;;;6.56;100.00
48624;BME280;34422;45.802;16.114;2023-02-18T05:53:00;100968.31;;;6.65;100.00
48624;BME280;34422;45.802;16.114;2023-02-18T05:55:26;100974.66;;;6.72;100.00
48624;BME280;34422;45.802;16.114;2023-02-18T05:57:53;100971.50;;;6.69;100.00
48624;BME280;34422;45.802;16.114;2023-02-18T06:00:20;100980.03;;;6.72;100.00
48624;BME280;34422;45.802;16.114;2023-02-18T06:02:47;100978.03;;;6.83;100.00
48624;BME280;34422;45.802;16.114;2023-02-18T06:05:14;100981.53;;;6.91;100.00
48624;BME280;34422;45.802;16.114;2023-02-18T06:07:41;100982.88;;;6.95;100.00
48624;BME280;34422;45.802;16.114;2023-02-18T06:10:08;100984.38;;;6.98;100.00
48624;BME280;34422;45.802;16.114;2023-02-18T06:12:35;100991.75;;;7.04;100.00
48624;BME280;34422;45.802;16.114;2023-02-18T06:15:02;100992.09;;;7.01;100.00
48624;BME280;34422;45.802;16.114;2023-02-18T06:17:29;100993.78;;;7.02;100.00
48624;BME280;34422;45.802;16.114;2023-02-18T06:19:56;100999.88;;;6.96;100.00
48624;BME280;34422;45.802;16.114;2023-02-18T06:22:23;101000.34;;;6.99;100.00
48624;BME280;34422;45.802;16.114;2023-02-18T06:24:50;101004.88;;;6.99;100.00
48624;BME280;34422;45.802;16.114;2023-02-18T06:27:17;101010.31;;;6.83;100.00
48624;BME280;34422;45.802;16.114;2023-02-18T06:29:43;101022.41;;;6.87;100.00
48624;BME280;34422;45.802;16.114;2023-02-18T06:32:10;101009.63;;;6.72;100.00
48624;BME280;34422;45.802;16.114;2023-02-18T06:34:37;101018.88;;;6.70;100.00
48624;BME280;34422;45.802;16.114;2023-02-18T06:37:03;101017.38;;;6.67;100.00
48624;BME280;34422;45.802;16.114;2023-02-18T06:39:30;101021.75;;;6.60;100.00
48624;BME280;34422;45.802;16.114;2023-02-18T06:41:57;101012.66;;;6.61;100.00
48624;BME280;34422;45.802;16.114;2023-02-18T06:44:24;101008.47;;;6.67;100.00
48624;BME280;34422;45.802;16.114;2023-02-18T06:46:51;101001.25;;;6.67;100.00
48624;BME280;34422;45.802;16.114;2023-02-18T06:49:17;101005.59;;;6.76;100.00
48624;BME280;34422;45.802;16.114;2023-02-18T06:51:44;101013.00;;;6.83;100.00
48624;BME280;34422;45.802;16.114;2023-02-18T06:54:11;101025.09;;;6.95;100.00
48624;BME280;34422;45.802;16.114;2023-02-18T06:56:38;101021.88;;;7.07;100.00
48624;BME280;34422;45.802;16.114;2023-02-18T06:59:04;101025.03;;;7.11;100.00
48624;BME280;34422;45.802;16.114;2023-02-18T07:01:31;101013.63;;;7.01;100.00
48624;BME280;34422;45.802;16.114;2023-02-18T07:03:58;101014.34;;;6.95;100.00
48624;BME280;34422;45.802;16.114;2023-02-18T07:06:25;101026.06;;;7.02;100.00
48624;BME280;34422;45.802;16.114;2023-02-18T07:08:52;101025.56;;;6.98;100.00
48624;BME280;34422;45.802;16.114;2023-02-18T07:11:18;101025.09;;;6.95;100.00
48624;BME280;34422;45.802;16.114;2023-02-18T07:13:45;101036.84;;;7.02;100.00
48624;BME280;34422;45.802;16.114;2023-02-18T07:16:12;101018.97;;;7.17;100.00
48624;BME280;34422;45.802;16.114;2023-02-18T07:18:39;101021.97;;;7.30;100.00
48624;BME280;34422;45.802;16.114;2023-02-18T07:21:05;101036.56;;;7.44;100.00
48624;BME280;34422;45.802;16.114;2023-02-18T07:23:32;101045.44;;;7.53;100.00
48624;BME280;34422;45.802;16.114;2023-02-18T07:26:17;101035.16;;;7.56;100.00
48624;BME280;34422;45.802;16.114;2023-02-18T07:28:44;101027.88;;;7.73;100.00
48624;BME280;34422;45.802;16.114;2023-02-18T07:31:11;101035.25;;;7.79;100.00
48624;BME280;34422;45.802;16.114;2023-02-18T07:33:37;101028.81;;;7.88;100.00
48624;BME280;34422;45.802;16.114;2023-02-18T07:36:05;101027.38;;;8.00;100.00
48624;BME280;34422;45.802;16.114;2023-02-18T07:38:32;101026.81;;;8.13;100.00
48624;BME280;34422;45.802;16.114;2023-02-18T07:40:59;101023.41;;;8.19;100.00
48624;BME280;34422;45.802;16.114;2023-02-18T07:43:26;101018.75;;;8.36;100.00
48624;BME280;34422;45.802;16.114;2023-02-18T07:45:52;101026.72;;;8.52;100.00
48624;BME280;34422;45.802;16.114;2023-02-18T07:48:19;101037.06;;;8.63;100.00
48624;BME280;34422;45.802;16.114;2023-02-18T07:50:46;101027.91;;;8.72;100.00
48624;BME280;34422;45.802;16.114;2023-02-18T07:53:15;101033.72;;;8.84;100.00
48624;BME280;34422;45.802;16.114;2023-02-18T07:55:42;101047.41;;;8.97;100.00
48624;BME280;34422;45.802;16.114;2023-02-18T07:58:25;101043.97;;;9.03;100.00
48624;BME280;34422;45.802;16.114;2023-02-18T08:00:54;101049.50;;;9.24;100.00
48624;BME280;34422;45.802;16.114;2023-02-18T08:03:23;101051.66;;;9.29;100.00
48624;BME280;34422;45.802;16.114;2023-02-18T08:05:51;101038.25;;;9.50;100.00
48624;BME280;34422;45.802;16.114;2023-02-18T08:08:21;101041.22;;;9.55;100.00
48624;BME280;34422;45.802;16.114;2023-02-18T08:10:49;101041.09;;;9.78;100.00
48624;BME280;34422;45.802;16.114;2023-02-18T08:13:16;101033.88;;;10.00;100.00
48624;BME280;34422;45.802;16.114;2023-02-18T08:15:43;101036.06;;;9.90;100.00
48624;BME280;34422;45.802;16.114;2023-02-18T08:18:19;101029.03;;;10.10;100.00
48624;BME280;34422;45.802;16.114;2023-02-18T08:20:46;101032.34;;;10.12;100.00
48624;BME280;34422;45.802;16.114;2023-02-18T08:23:14;101036.06;;;10.26;100.00
48624;BME280;34422;45.802;16.114;2023-02-18T08:25:48;101035.50;;;10.30;100.00
48624;BME280;34422;45.802;16.114;2023-02-18T08:28:17;101034.34;;;10.18;100.00
48624;BME280;34422;45.802;16.114;2023-02-18T08:30:45;101021.16;;;10.15;100.00
48624;BME280;34422;45.802;16.114;2023-02-18T08:33:12;101032.47;;;10.19;99.89
48624;BME280;34422;45.802;16.114;2023-02-18T08:35:40;101038.78;;;10.26;99.56
48624;BME280;34422;45.802;16.114;2023-02-18T08:38:07;101041.03;;;10.44;99.00
48624;BME280;34422;45.802;16.114;2023-02-18T08:40:34;101019.03;;;10.47;98.77
48624;BME280;34422;45.802;16.114;2023-02-18T08:43:01;101022.38;;;10.49;98.82
48624;BME280;34422;45.802;16.114;2023-02-18T08:45:27;101029.47;;;10.50;98.95
48624;BME280;34422;45.802;16.114;2023-02-18T08:47:54;101027.66;;;10.57;98.14
48624;BME280;34422;45.802;16.114;2023-02-18T08:50:21;101025.28;;;10.47;98.65
48624;BME280;34422;45.802;16.114;2023-02-18T08:52:51;101027.13;;;10.68;100.00
48624;BME280;34422;45.802;16.114;2023-02-18T08:55:19;101020.88;;;10.46;97.46
48624;BME280;34422;45.802;16.114;2023-02-18T08:57:49;101031.50;;;10.69;98.09
48624;BME280;34422;45.802;16.114;2023-02-18T09:00:16;101033.38;;;10.68;97.18
48624;BME280;34422;45.802;16.114;2023-02-18T09:02:43;101042.97;;;10.71;97.04
48624;BME280;34422;45.802;16.114;2023-02-18T09:05:11;101030.00;;;10.66;96.33
48624;BME280;34422;45.802;16.114;2023-02-18T09:07:38;101040.66;;;10.68;97.48
48624;BME280;34422;45.802;16.114;2023-02-18T09:10:06;101033.56;;;10.88;96.58
48624;BME280;34422;45.802;16.114;2023-02-18T09:12:33;101030.69;;;10.96;95.95
48624;BME280;34422;45.802;16.114;2023-02-18T09:15:00;101035.81;;;11.13;94.51
48624;BME280;34422;45.802;16.114;2023-02-18T09:17:27;101037.50;;;11.14;94.42
48624;BME280;34422;45.802;16.114;2023-02-18T09:19:54;101044.53;;;11.08;93.52
48624;BME280;34422;45.802;16.114;2023-02-18T09:22:20;101044.59;;;11.15;92.82
48624;BME280;34422;45.802;16.114;2023-02-18T09:24:47;101036.81;;;11.33;91.95
48624;BME280;34422;45.802;16.114;2023-02-18T09:27:14;101035.41;;;11.50;91.21
48624;BME280;34422;45.802;16.114;2023-02-18T09:29:41;101041.50;;;11.52;90.97
48624;BME280;34422;45.802;16.114;2023-02-18T09:32:08;101045.41;;;11.78;89.85
48624;BME280;34422;45.802;16.114;2023-02-18T09:34:35;101051.47;;;11.80;89.06
48624;BME280;34422;45.802;16.114;2023-02-18T09:37:02;101046.53;;;12.03;88.17
48624;BME280;34422;45.802;16.114;2023-02-18T09:39:29;101054.97;;;12.21;85.10
48624;BME280;34422;45.802;16.114;2023-02-18T09:42:00;101052.84;;;12.17;85.52
48624;BME280;34422;45.802;16.114;2023-02-18T09:49:30;101049.66;;;12.80;81.32
48624;BME280;34422;45.802;16.114;2023-02-18T09:52:05;101046.31;;;12.98;80.60
48624;BME280;34422;45.802;16.114;2023-02-18T09:54:36;101045.47;;;12.91;80.16
48624;BME280;34422;45.802;16.114;2023-02-18T09:57:05;101045.25;;;12.86;79.72
48624;BME280;34422;45.802;16.114;2023-02-18T09:59:33;101040.06;;;12.98;79.34
48624;BME280;34422;45.802;16.114;2023-02-18T10:02:00;101036.50;;;12.84;79.28
48624;BME280;34422;45.802;16.114;2023-02-18T10:04:33;101037.75;;;13.14;78.07
48624;BME280;34422;45.802;16.114;2023-02-18T10:07:02;101025.81;;;13.09;77.33
48624;BME280;34422;45.802;16.114;2023-02-18T10:09:37;101034.38;;;12.99;75.74
48624;BME280;34422;45.802;16.114;2023-02-18T10:12:13;101041.06;;;12.90;76.68
48624;BME280;34422;45.802;16.114;2023-02-18T10:14:43;101032.09;;;12.83;77.05
48624;BME280;34422;45.802;16.114;2023-02-18T10:17:14;101031.25;;;13.02;76.88
48624;BME280;34422;45.802;16.114;2023-02-18T10:19:43;101032.28;;;12.75;76.59
48624;BME280;34422;45.802;16.114;2023-02-18T10:22:12;101024.78;;;12.90;76.82
48624;BME280;34422;45.802;16.114;2023-02-18T10:24:52;101022.28;;;12.95;76.46
48624;BME280;34422;45.802;16.114;2023-02-18T10:27:24;101024.78;;;13.03;75.72
48624;BME280;34422;45.802;16.114;2023-02-18T10:29:54;101020.59;;;13.01;75.19
48624;BME280;34422;45.802;16.114;2023-02-18T10:41:39;101025.63;;;12.97;75.34
48624;BME280;34422;45.802;16.114;2023-02-18T10:44:34;101036.47;;;13.04;75.13
48624;BME280;34422;45.802;16.114;2023-02-18T10:50:09;101023.53;;;12.93;75.57
48624;BME280;34422;45.802;16.114;2023-02-18T10:52:43;101033.78;;;12.84;76.14
48624;BME280;34422;45.802;16.114;2023-02-18T10:55:13;101037.09;;;12.86;76.09
48624;BME280;34422;45.802;16.114;2023-02-18T10:57:48;101032.72;;;12.85;75.74
48624;BME280;34422;45.802;16.114;2023-02-18T11:00:25;101035.88;;;12.82;75.44
48624;BME280;34422;45.802;16.114;2023-02-18T11:05:38;101026.03;;;12.94;74.85
48624;BME280;34422;45.802;16.114;2023-02-18T11:08:07;101022.91;;;12.84;75.13
48624;BME280;34422;45.802;16.114;2023-02-18T11:10:38;101024.56;;;12.85;75.89
48624;BME280;34422;45.802;16.114;2023-02-18T11:13:09;101012.88;;;12.78;75.57
48624;BME280;34422;45.802;16.114;2023-02-18T11:15:57;101020.59;;;12.68;75.87
48624;BME280;34422;45.802;16.114;2023-02-18T11:21:18;101005.13;;;12.75;76.76
48624;BME280;34422;45.802;16.114;2023-02-18T11:23:48;101004.72;;;12.78;75.75
48624;BME280;34422;45.802;16.114;2023-02-18T11:26:29;101000.13;;;12.72;76.00
48624;BME280;34422;45.802;16.114;2023-02-18T11:29:01;100995.13;;;12.75;75.92
48624;BME280;34422;45.802;16.114;2023-02-18T11:31:39;101000.53;;;12.75;76.64
48624;BME280;34422;45.802;16.114;2023-02-18T11:34:14;101000.13;;;12.72;75.72
48624;BME280;34422;45.802;16.114;2023-02-18T11:36:42;100983.00;;;12.65;76.32
48624;BME280;34422;45.802;16.114;2023-02-18T11:39:22;100979.44;;;12.58;76.37
48624;BME280;34422;45.802;16.114;2023-02-18T11:41:56;100980.28;;;12.78;76.43
48624;BME280;34422;45.802;16.114;2023-02-18T11:44:33;100967.97;;;12.95;75.41
48624;BME280;34422;45.802;16.114;2023-02-18T11:49:35;100966.47;;;12.86;75.56
48624;BME280;34422;45.802;16.114;2023-02-18T11:52:17;100970.88;;;12.87;74.99
48624;BME280;34422;45.802;16.114;2023-02-18T11:55:16;100965.47;;;12.80;75.18
48624;BME280;34422;45.802;16.114;2023-02-18T11:57:48;100958.75;;;12.96;74.88
48624;BME280;34422;45.802;16.114;2023-02-18T12:00:24;100951.03;;;12.80;74.99
48624;BME280;34422;45.802;16.114;2023-02-18T12:02:58;100951.22;;;12.85;74.93
48624;BME280;34422;45.802;16.114;2023-02-18T12:05:26;100944.56;;;12.81;75.08
48624;BME280;34422;45.802;16.114;2023-02-18T12:08:16;100947.91;;;12.83;75.75
48624;BME280;34422;45.802;16.114;2023-02-18T12:10:50;100939.75;;;12.83;75.41
48624;BME280;34422;45.802;16.114;2023-02-18T12:13:42;100932.47;;;12.70;75.77
48624;BME280;34422;45.802;16.114;2023-02-18T12:24:40;100918.19;;;13.01;74.50
48624;BME280;34422;45.802;16.114;2023-02-18T12:27:42;100915.31;;;12.96;74.36
48624;BME280;34422;45.802;16.114;2023-02-18T12:35:58;100914.22;;;13.24;73.54
48624;BME280;34422;45.802;16.114;2023-02-18T12:50:12;100884.91;;;13.26;74.26
48624;BME280;34422;45.802;16.114;2023-02-18T12:52:43;100874.66;;;13.34;73.04
48624;BME280;34422;45.802;16.114;2023-02-18T13:09:59;100832.31;;;13.51;71.64
48624;BME280;34422;45.802;16.114;2023-02-18T13:12:38;100825.16;;;13.57;71.08
48624;BME280;34422;45.802;16.114;2023-02-18T13:15:20;100817.09;;;13.75;69.95
48624;BME280;34422;45.802;16.114;2023-02-18T13:17:50;100806.94;;;13.64;71.22
48624;BME280;34422;45.802;16.114;2023-02-18T13:20:20;100787.28;;;13.62;69.85
48624;BME280;34422;45.802;16.114;2023-02-18T13:22:49;100799.22;;;13.61;69.33
48624;BME280;34422;45.802;16.114;2023-02-18T13:25:19;100790.44;;;13.59;70.79
48624;BME280;34422;45.802;16.114;2023-02-18T13:30:24;100785.41;;;14.12;68.83
48624;BME280;34422;45.802;16.114;2023-02-18T13:33:08;100782.97;;;14.04;68.96
48624;BME280;34422;45.802;16.114;2023-02-18T13:38:27;100768.75;;;14.02;68.21
48624;BME280;34422;45.802;16.114;2023-02-18T13:40:57;100762.41;;;13.83;68.92
48624;BME280;34422;45.802;16.114;2023-02-18T13:43:31;100760.13;;;13.80;68.96
48624;BME280;34422;45.802;16.114;2023-02-18T13:48:28;100763.34;;;13.96;68.73
48624;BME280;34422;45.802;16.114;2023-02-18T13:51:01;100755.53;;;13.81;68.71
48624;BME280;34422;45.802;16.114;2023-02-18T13:53:36;100762.09;;;13.98;68.92
48624;BME280;34422;45.802;16.114;2023-02-18T13:56:06;100751.72;;;13.88;69.24
48624;BME280;34422;45.802;16.114;2023-02-18T13:58:43;100745.72;;;13.80;69.56
48624;BME280;34422;45.802;16.114;2023-02-18T14:01:24;100730.38;;;13.85;69.54
48624;BME280;34422;45.802;16.114;2023-02-18T14:03:59;100730.47;;;13.79;69.65
48624;BME280;34422;45.802;16.114;2023-02-18T14:06:29;100723.25;;;13.91;69.87
48624;BME280;34422;45.802;16.114;2023-02-18T14:11:45;100710.69;;;13.90;69.66
48624;BME280;34422;45.802;16.114;2023-02-18T14:14:26;100708.59;;;13.92;69.87
48624;BME280;34422;45.802;16.114;2023-02-18T14:27:36;100702.66;;;13.95;70.17
48624;BME280;34422;45.802;16.114;2023-02-18T14:30:07;100704.72;;;14.00;70.56
48624;BME280;34422;45.802;16.114;2023-02-18T14:32:42;100697.34;;;13.82;69.36
48624;BME280;34422;45.802;16.114;2023-02-18T14:35:26;100679.22;;;13.76;69.81
48624;BME280;34422;45.802;16.114;2023-02-18T14:39:10;100679.44;;;13.74;70.62
48624;BME280;34422;45.802;16.114;2023-02-18T14:41:20;100674.44;;;13.71;71.34
48624;BME280;34422;45.802;16.114;2023-02-18T14:46:42;100658.91;;;13.78;70.41
48624;BME280;34422;45.802;16.114;2023-02-18T14:51:43;100659.97;;;13.77;70.53
48624;BME280;34422;45.802;16.114;2023-02-18T14:54:17;100656.47;;;13.70;70.74
48624;BME280;34422;45.802;16.114;2023-02-18T14:56:50;100659.34;;;13.75;70.61
48624;BME280;34422;45.802;16.114;2023-02-18T14:59:19;100660.84;;;13.71;70.43
48624;BME280;34422;45.802;16.114;2023-02-18T15:01:47;100657.38;;;13.64;70.99
48624;BME280;34422;45.802;16.114;2023-02-18T15:04:14;100658.53;;;13.50;72.35
48624;BME280;34422;45.802;16.114;2023-02-18T15:06:41;100657.50;;;13.51;71.98